sensor_id;sensor_type;location;lat;lon;timestamp;P1;durP1;ratioP1;P2;durP2;ratioP2
22656;SDS011;11495;55.610;12.100;2023-07-13T00:01:16;1.50;;;0.90;;
22656;SDS011;11495;55.610;12.100;2023-07-13T00:03:41;3.60;;;0.93;;
22656;SDS011;11495;55.610;12.100;2023-07-13T00:06:07;0.75;;;0.75;;
22656;SDS011;11495;55.610;12.100;2023-07-13T00:08:33;1.90;;;0.90;;
22656;SDS011;11495;55.610;12.100;2023-07-13T00:10:59;2.30;;;1.10;;
22656;SDS011;11495;55.610;12.100;2023-07-13T00:13:25;3.40;;;1.50;;
22656;SDS011;11495;55.610;12.100;2023-07-13T00:15:50;1.48;;;1.15;;
22656;SDS011;11495;55.610;12.100;2023-07-13T00:18:15;2.85;;;1.05;;
22656;SDS011;11495;55.610;12.100;2023-07-13T00:20:41;1.42;;;0.90;;
22656;SDS011;11495;55.610;12.100;2023-07-13T00:23:06;2.20;;;1.08;;
22656;SDS011;11495;55.610;12.100;2023-07-13T00:25:31;0.95;;;0.90;;
22656;SDS011;11495;55.610;12.100;2023-07-13T00:27:57;3.45;;;1.20;;
22656;SDS011;11495;55.610;12.100;2023-07-13T00:30:22;1.15;;;1.02;;
22656;SDS011;11495;55.610;12.100;2023-07-13T00:32:48;2.87;;;1.00;;
22656;SDS011;11495;55.610;12.100;2023-07-13T00:35:14;1.80;;;0.95;;
22656;SDS011;11495;55.610;12.100;2023-07-13T00:37:40;4.30;;;1.02;;
22656;SDS011;11495;55.610;12.100;2023-07-13T00:40:06;1.00;;;0.90;;
22656;SDS011;11495;55.610;12.100;2023-07-13T00:42:31;2.42;;;0.82;;
22656;SDS011;11495;55.610;12.100;2023-07-13T00:47:31;1.35;;;1.00;;
22656;SDS011;11495;55.610;12.100;2023-07-13T00:49:57;1.35;;;1.00;;
22656;SDS011;11495;55.610;12.100;2023-07-13T00:52:22;2.62;;;1.58;;
22656;SDS011;11495;55.610;12.100;2023-07-13T00:54:48;2.92;;;0.70;;
22656;SDS011;11495;55.610;12.100;2023-07-13T00:57:15;4.15;;;1.00;;
22656;SDS011;11495;55.610;12.100;2023-07-13T00:59:41;2.15;;;0.75;;
22656;SDS011;11495;55.610;12.100;2023-07-13T01:02:07;2.70;;;1.15;;
22656;SDS011;11495;55.610;12.100;2023-07-13T01:04:33;3.10;;;1.10;;
22656;SDS011;11495;55.610;12.100;2023-07-13T01:06:58;1.87;;;1.65;;
22656;SDS011;11495;55.610;12.100;2023-07-13T01:09:26;1.08;;;0.88;;
22656;SDS011;11495;55.610;12.100;2023-07-13T01:11:51;1.85;;;0.88;;
22656;SDS011;11495;55.610;12.100;2023-07-13T01:14:17;1.87;;;1.15;;
22656;SDS011;11495;55.610;12.100;2023-07-13T01:16:43;1.05;;;0.95;;
22656;SDS011;11495;55.610;12.100;2023-07-13T01:19:32;2.25;;;0.98;;
22656;SDS011;11495;55.610;12.100;2023-07-13T01:22:01;0.90;;;0.90;;
22656;SDS011;11495;55.610;12.100;2023-07-13T01:24:26;1.98;;;1.00;;
22656;SDS011;11495;55.610;12.100;2023-07-13T01:26:51;3.42;;;0.90;;
22656;SDS011;11495;55.610;12.100;2023-07-13T01:29:17;4.28;;;0.98;;
22656;SDS011;11495;55.610;12.100;2023-07-13T01:31:42;3.87;;;1.10;;
22656;SDS011;11495;55.610;12.100;2023-07-13T01:34:09;1.52;;;1.02;;
22656;SDS011;11495;55.610;12.100;2023-07-13T01:36:35;3.42;;;1.00;;
22656;SDS011;11495;55.610;12.100;2023-07-13T01:39:01;1.20;;;0.88;;
22656;SDS011;11495;55.610;12.100;2023-07-13T01:41:26;2.75;;;0.95;;
22656;SDS011;11495;55.610;12.100;2023-07-13T01:43:51;4.53;;;2.00;;
22656;SDS011;11495;55.610;12.100;2023-07-13T01:46:17;2.45;;;1.48;;
22656;SDS011;11495;55.610;12.100;2023-07-13T01:48:42;1.87;;;1.00;;
22656;SDS011;11495;55.610;12.100;2023-07-13T01:51:07;4.10;;;1.08;;
22656;SDS011;11495;55.610;12.100;2023-07-13T01:53:33;3.28;;;1.65;;
22656;SDS011;11495;55.610;12.100;2023-07-13T01:55:58;2.28;;;1.05;;
22656;SDS011;11495;55.610;12.100;2023-07-13T01:58:23;1.48;;;1.10;;
22656;SDS011;11495;55.610;12.100;2023-07-13T02:00:49;2.62;;;0.82;;
22656;SDS011;11495;55.610;12.100;2023-07-13T02:03:15;1.48;;;1.10;;
22656;SDS011;11495;55.610;12.100;2023-07-13T02:05:43;3.70;;;1.62;;
22656;SDS011;11495;55.610;12.100;2023-07-13T02:08:08;3.53;;;1.12;;
22656;SDS011;11495;55.610;12.100;2023-07-13T02:10:33;1.95;;;1.30;;
22656;SDS011;11495;55.610;12.100;2023-07-13T02:12:59;3.83;;;0.90;;
22656;SDS011;11495;55.610;12.100;2023-07-13T02:15:24;1.37;;;1.08;;
22656;SDS011;11495;55.610;12.100;2023-07-13T02:17:49;7.82;;;1.80;;
22656;SDS011;11495;55.610;12.100;2023-07-13T02:20:15;4.10;;;1.77;;
22656;SDS011;11495;55.610;12.100;2023-07-13T02:22:40;1.37;;;1.00;;
22656;SDS011;11495;55.610;12.100;2023-07-13T02:25:05;2.35;;;1.08;;
22656;SDS011;11495;55.610;12.100;2023-07-13T02:27:31;4.70;;;1.12;;
22656;SDS011;11495;55.610;12.100;2023-07-13T02:29:57;4.78;;;1.27;;
22656;SDS011;11495;55.610;12.100;2023-07-13T02:32:22;2.35;;;1.12;;
22656;SDS011;11495;55.610;12.100;2023-07-13T02:34:50;1.62;;;1.15;;
22656;SDS011;11495;55.610;12.100;2023-07-13T02:37:15;2.35;;;1.10;;
22656;SDS011;11495;55.610;12.100;2023-07-13T02:39:40;1.35;;;0.90;;
22656;SDS011;11495;55.610;12.100;2023-07-13T02:42:06;2.85;;;1.27;;
22656;SDS011;11495;55.610;12.100;2023-07-13T02:44:31;2.70;;;0.80;;
22656;SDS011;11495;55.610;12.100;2023-07-13T02:46:57;2.50;;;0.80;;
22656;SDS011;11495;55.610;12.100;2023-07-13T02:49:22;1.05;;;0.90;;
22656;SDS011;11495;55.610;12.100;2023-07-13T02:51:47;2.08;;;1.10;;
22656;SDS011;11495;55.610;12.100;2023-07-13T02:54:13;1.40;;;1.00;;
22656;SDS011;11495;55.610;12.100;2023-07-13T02:56:38;1.67;;;1.08;;
22656;SDS011;11495;55.610;12.100;2023-07-13T02:59:04;1.10;;;0.95;;
22656;SDS011;11495;55.610;12.100;2023-07-13T03:01:29;1.17;;;1.02;;
22656;SDS011;11495;55.610;12.100;2023-07-13T03:03:54;1.70;;;1.17;;
22656;SDS011;11495;55.610;12.100;2023-07-13T03:06:21;0.80;;;0.80;;
22656;SDS011;11495;55.610;12.100;2023-07-13T03:08:46;3.30;;;1.30;;
22656;SDS011;11495;55.610;12.100;2023-07-13T03:11:16;4.47;;;1.37;;
22656;SDS011;11495;55.610;12.100;2023-07-13T03:13:42;2.90;;;1.12;;
22656;SDS011;11495;55.610;12.100;2023-07-13T03:16:08;3.53;;;1.20;;
22656;SDS011;11495;55.610;12.100;2023-07-13T03:18:34;1.73;;;1.10;;
22656;SDS011;11495;55.610;12.100;2023-07-13T03:20:59;1.23;;;1.02;;
22656;SDS011;11495;55.610;12.100;2023-07-13T03:23:25;6.95;;;1.55;;
22656;SDS011;11495;55.610;12.100;2023-07-13T03:25:50;5.30;;;1.95;;
22656;SDS011;11495;55.610;12.100;2023-07-13T03:28:25;1.48;;;1.35;;
22656;SDS011;11495;55.610;12.100;2023-07-13T03:30:58;1.08;;;1.00;;
22656;SDS011;11495;55.610;12.100;2023-07-13T03:33:23;2.20;;;1.40;;
22656;SDS011;11495;55.610;12.100;2023-07-13T03:35:49;4.10;;;1.62;;
22656;SDS011;11495;55.610;12.100;2023-07-13T03:38:14;3.83;;;1.60;;
22656;SDS011;11495;55.610;12.100;2023-07-13T03:40:39;3.65;;;1.67;;
22656;SDS011;11495;55.610;12.100;2023-07-13T03:43:05;3.92;;;1.35;;
22656;SDS011;11495;55.610;12.100;2023-07-13T03:45:30;4.87;;;1.40;;
22656;SDS011;11495;55.610;12.100;2023-07-13T03:47:55;1.83;;;1.35;;
22656;SDS011;11495;55.610;12.100;2023-07-13T03:50:21;7.43;;;2.22;;
22656;SDS011;11495;55.610;12.100;2023-07-13T03:52:46;10.35;;;2.28;;
22656;SDS011;11495;55.610;12.100;2023-07-13T03:55:11;4.62;;;2.25;;
22656;SDS011;11495;55.610;12.100;2023-07-13T03:57:36;4.90;;;2.40;;
22656;SDS011;11495;55.610;12.100;2023-07-13T04:00:02;5.22;;;1.80;;
22656;SDS011;11495;55.610;12.100;2023-07-13T04:02:28;1.90;;;1.70;;
22656;SDS011;11495;55.610;12.100;2023-07-13T04:04:53;2.42;;;1.90;;
22656;SDS011;11495;55.610;12.100;2023-07-13T04:07:19;6.53;;;1.90;;
22656;SDS011;11495;55.610;12.100;2023-07-13T04:09:44;3.90;;;2.60;;
22656;SDS011;11495;55.610;12.100;2023-07-13T04:12:09;3.05;;;2.05;;
22656;SDS011;11495;55.610;12.100;2023-07-13T04:14:35;3.55;;;2.30;;
22656;SDS011;11495;55.610;12.100;2023-07-13T04:17:00;6.45;;;3.05;;
22656;SDS011;11495;55.610;12.100;2023-07-13T04:19:25;4.82;;;2.20;;
22656;SDS011;11495;55.610;12.100;2023-07-13T04:21:51;2.78;;;1.75;;
22656;SDS011;11495;55.610;12.100;2023-07-13T04:24:16;8.23;;;2.83;;
22656;SDS011;11495;55.610;12.100;2023-07-13T04:26:41;5.18;;;2.60;;
22656;SDS011;11495;55.610;12.100;2023-07-13T04:29:06;3.15;;;2.42;;
22656;SDS011;11495;55.610;12.100;2023-07-13T04:31:32;5.35;;;2.78;;
22656;SDS011;11495;55.610;12.100;2023-07-13T04:33:58;6.12;;;2.78;;
22656;SDS011;11495;55.610;12.100;2023-07-13T04:36:23;6.85;;;2.90;;
22656;SDS011;11495;55.610;12.100;2023-07-13T04:38:52;9.40;;;3.50;;
22656;SDS011;11495;55.610;12.100;2023-07-13T04:41:19;5.53;;;2.70;;
22656;SDS011;11495;55.610;12.100;2023-07-13T04:43:44;5.93;;;2.83;;
22656;SDS011;11495;55.610;12.100;2023-07-13T04:46:10;6.78;;;2.65;;
22656;SDS011;11495;55.610;12.100;2023-07-13T04:48:36;3.75;;;2.20;;
22656;SDS011;11495;55.610;12.100;2023-07-13T04:51:02;5.70;;;2.30;;
22656;SDS011;11495;55.610;12.100;2023-07-13T04:53:28;4.72;;;2.60;;
22656;SDS011;11495;55.610;12.100;2023-07-13T04:55:54;5.87;;;1.90;;
22656;SDS011;11495;55.610;12.100;2023-07-13T04:58:21;4.97;;;2.10;;
22656;SDS011;11495;55.610;12.100;2023-07-13T05:00:46;5.82;;;2.00;;
22656;SDS011;11495;55.610;12.100;2023-07-13T05:03:12;7.80;;;2.15;;
22656;SDS011;11495;55.610;12.100;2023-07-13T05:05:37;4.50;;;1.90;;
22656;SDS011;11495;55.610;12.100;2023-07-13T05:08:02;3.58;;;2.00;;
22656;SDS011;11495;55.610;12.100;2023-07-13T05:10:28;3.03;;;1.40;;
22656;SDS011;11495;55.610;12.100;2023-07-13T05:12:53;1.60;;;1.50;;
22656;SDS011;11495;55.610;12.100;2023-07-13T05:15:20;3.80;;;1.90;;
22656;SDS011;11495;55.610;12.100;2023-07-13T05:17:46;5.62;;;1.75;;
22656;SDS011;11495;55.610;12.100;2023-07-13T05:20:12;2.55;;;1.70;;
22656;SDS011;11495;55.610;12.100;2023-07-13T05:22:37;6.30;;;1.80;;
22656;SDS011;11495;55.610;12.100;2023-07-13T05:25:04;2.33;;;1.27;;
22656;SDS011;11495;55.610;12.100;2023-07-13T05:27:29;2.05;;;1.37;;
22656;SDS011;11495;55.610;12.100;2023-07-13T05:29:55;3.85;;;1.62;;
22656;SDS011;11495;55.610;12.100;2023-07-13T05:32:20;2.03;;;1.10;;
22656;SDS011;11495;55.610;12.100;2023-07-13T05:34:45;2.35;;;1.48;;
22656;SDS011;11495;55.610;12.100;2023-07-13T05:37:10;6.25;;;1.60;;
22656;SDS011;11495;55.610;12.100;2023-07-13T05:39:36;2.45;;;1.70;;
22656;SDS011;11495;55.610;12.100;2023-07-13T05:42:01;3.45;;;1.20;;
22656;SDS011;11495;55.610;12.100;2023-07-13T05:44:27;3.22;;;1.62;;
22656;SDS011;11495;55.610;12.100;2023-07-13T05:46:52;2.62;;;1.45;;
22656;SDS011;11495;55.610;12.100;2023-07-13T05:49:18;3.17;;;1.87;;
22656;SDS011;11495;55.610;12.100;2023-07-13T05:51:43;2.28;;;1.70;;
22656;SDS011;11495;55.610;12.100;2023-07-13T05:54:09;2.75;;;2.00;;
22656;SDS011;11495;55.610;12.100;2023-07-13T05:56:34;4.70;;;1.42;;
22656;SDS011;11495;55.610;12.100;2023-07-13T05:58:59;2.17;;;1.97;;
22656;SDS011;11495;55.610;12.100;2023-07-13T06:01:25;4.87;;;2.12;;
22656;SDS011;11495;55.610;12.100;2023-07-13T06:03:50;4.12;;;1.58;;
22656;SDS011;11495;55.610;12.100;2023-07-13T06:06:16;5.55;;;1.90;;
22656;SDS011;11495;55.610;12.100;2023-07-13T06:08:42;3.45;;;2.08;;
22656;SDS011;11495;55.610;12.100;2023-07-13T06:11:18;2.58;;;1.23;;
22656;SDS011;11495;55.610;12.100;2023-07-13T06:13:43;4.32;;;1.52;;
22656;SDS011;11495;55.610;12.100;2023-07-13T06:16:09;2.60;;;1.37;;
22656;SDS011;11495;55.610;12.100;2023-07-13T06:18:35;3.40;;;1.70;;
22656;SDS011;11495;55.610;12.100;2023-07-13T06:21:01;4.20;;;1.42;;
22656;SDS011;11495;55.610;12.100;2023-07-13T06:23:26;4.22;;;1.87;;
22656;SDS011;11495;55.610;12.100;2023-07-13T06:25:52;2.70;;;1.62;;
22656;SDS011;11495;55.610;12.100;2023-07-13T06:28:17;5.30;;;2.03;;
22656;SDS011;11495;55.610;12.100;2023-07-13T06:30:42;2.65;;;1.90;;
22656;SDS011;11495;55.610;12.100;2023-07-13T06:33:07;3.60;;;1.42;;
22656;SDS011;11495;55.610;12.100;2023-07-13T06:35:33;4.93;;;1.70;;
22656;SDS011;11495;55.610;12.100;2023-07-13T06:37:58;3.45;;;1.70;;
22656;SDS011;11495;55.610;12.100;2023-07-13T06:40:24;2.58;;;2.05;;
22656;SDS011;11495;55.610;12.100;2023-07-13T06:42:49;3.87;;;1.60;;
22656;SDS011;11495;55.610;12.100;2023-07-13T06:45:14;3.22;;;1.20;;
22656;SDS011;11495;55.610;12.100;2023-07-13T06:47:40;3.20;;;1.20;;
22656;SDS011;11495;55.610;12.100;2023-07-13T06:50:05;3.65;;;1.50;;
22656;SDS011;11495;55.610;12.100;2023-07-13T06:52:30;2.00;;;1.30;;
22656;SDS011;11495;55.610;12.100;2023-07-13T06:54:56;5.50;;;1.77;;
22656;SDS011;11495;55.610;12.100;2023-07-13T06:57:21;5.50;;;1.52;;
22656;SDS011;11495;55.610;12.100;2023-07-13T06:59:46;5.43;;;1.60;;
22656;SDS011;11495;55.610;12.100;2023-07-13T07:02:12;3.22;;;1.67;;
22656;SDS011;11495;55.610;12.100;2023-07-13T07:04:37;2.45;;;1.10;;
22656;SDS011;11495;55.610;12.100;2023-07-13T07:07:03;5.22;;;1.48;;
22656;SDS011;11495;55.610;12.100;2023-07-13T07:09:28;2.17;;;1.20;;
22656;SDS011;11495;55.610;12.100;2023-07-13T07:11:55;2.25;;;1.10;;
22656;SDS011;11495;55.610;12.100;2023-07-13T07:14:20;2.55;;;0.93;;
22656;SDS011;11495;55.610;12.100;2023-07-13T07:16:45;2.70;;;0.98;;
22656;SDS011;11495;55.610;12.100;2023-07-13T07:19:11;2.67;;;0.80;;
22656;SDS011;11495;55.610;12.100;2023-07-13T07:21:36;2.45;;;1.45;;
22656;SDS011;11495;55.610;12.100;2023-07-13T07:24:01;2.47;;;1.03;;
22656;SDS011;11495;55.610;12.100;2023-07-13T07:26:28;3.55;;;0.98;;
22656;SDS011;11495;55.610;12.100;2023-07-13T07:28:54;3.08;;;1.17;;
22656;SDS011;11495;55.610;12.100;2023-07-13T07:31:19;2.28;;;0.70;;
22656;SDS011;11495;55.610;12.100;2023-07-13T07:33:44;2.70;;;1.35;;
22656;SDS011;11495;55.610;12.100;2023-07-13T07:36:10;7.12;;;1.73;;
22656;SDS011;11495;55.610;12.100;2023-07-13T07:38:36;1.55;;;0.90;;
22656;SDS011;11495;55.610;12.100;2023-07-13T07:41:02;6.25;;;1.60;;
22656;SDS011;11495;55.610;12.100;2023-07-13T07:43:28;2.15;;;1.23;;
22656;SDS011;11495;55.610;12.100;2023-07-13T07:45:53;3.37;;;1.30;;
22656;SDS011;11495;55.610;12.100;2023-07-13T07:48:18;5.57;;;2.33;;
22656;SDS011;11495;55.610;12.100;2023-07-13T07:50:44;2.87;;;1.02;;
22656;SDS011;11495;55.610;12.100;2023-07-13T07:53:10;1.90;;;1.10;;
22656;SDS011;11495;55.610;12.100;2023-07-13T07:55:36;2.85;;;1.58;;
22656;SDS011;11495;55.610;12.100;2023-07-13T07:58:01;3.90;;;1.10;;
22656;SDS011;11495;55.610;12.100;2023-07-13T08:00:27;2.62;;;1.23;;
22656;SDS011;11495;55.610;12.100;2023-07-13T08:02:55;4.75;;;1.45;;
22656;SDS011;11495;55.610;12.100;2023-07-13T08:05:20;1.55;;;0.90;;
22656;SDS011;11495;55.610;12.100;2023-07-13T08:07:46;5.78;;;1.70;;
22656;SDS011;11495;55.610;12.100;2023-07-13T08:10:11;2.15;;;1.27;;
22656;SDS011;11495;55.610;12.100;2023-07-13T08:12:37;4.30;;;1.20;;
22656;SDS011;11495;55.610;12.100;2023-07-13T08:15:03;3.45;;;1.40;;
22656;SDS011;11495;55.610;12.100;2023-07-13T08:17:28;3.20;;;1.35;;
22656;SDS011;11495;55.610;12.100;2023-07-13T08:19:54;3.05;;;1.40;;
22656;SDS011;11495;55.610;12.100;2023-07-13T08:22:19;1.65;;;1.10;;
22656;SDS011;11495;55.610;12.100;2023-07-13T08:24:44;5.07;;;1.80;;
22656;SDS011;11495;55.610;12.100;2023-07-13T08:27:10;4.78;;;1.42;;
22656;SDS011;11495;55.610;12.100;2023-07-13T08:29:36;2.67;;;1.23;;
22656;SDS011;11495;55.610;12.100;2023-07-13T08:32:02;2.85;;;1.37;;
22656;SDS011;11495;55.610;12.100;2023-07-13T08:34:27;4.28;;;2.08;;
22656;SDS011;11495;55.610;12.100;2023-07-13T08:36:53;4.87;;;1.58;;
22656;SDS011;11495;55.610;12.100;2023-07-13T08:39:18;2.03;;;1.60;;
22656;SDS011;11495;55.610;12.100;2023-07-13T08:41:45;2.90;;;1.15;;
22656;SDS011;11495;55.610;12.100;2023-07-13T08:44:16;3.58;;;1.37;;
22656;SDS011;11495;55.610;12.100;2023-07-13T08:46:45;3.67;;;1.20;;
22656;SDS011;11495;55.610;12.100;2023-07-13T08:49:15;1.00;;;0.90;;
22656;SDS011;11495;55.610;12.100;2023-07-13T08:54:19;1.95;;;0.95;;
22656;SDS011;11495;55.610;12.100;2023-07-13T08:56:46;2.12;;;1.12;;
22656;SDS011;11495;55.610;12.100;2023-07-13T08:59:15;2.40;;;1.40;;
22656;SDS011;11495;55.610;12.100;2023-07-13T09:04:21;1.55;;;1.05;;
22656;SDS011;11495;55.610;12.100;2023-07-13T09:09:22;1.98;;;1.15;;
22656;SDS011;11495;55.610;12.100;2023-07-13T09:12:01;3.62;;;1.02;;
22656;SDS011;11495;55.610;12.100;2023-07-13T09:16:56;3.03;;;1.25;;
22656;SDS011;11495;55.610;12.100;2023-07-13T09:19:24;1.85;;;1.08;;
22656;SDS011;11495;55.610;12.100;2023-07-13T09:21:51;0.82;;;0.75;;
22656;SDS011;11495;55.610;12.100;2023-07-13T09:26:43;1.80;;;0.90;;
22656;SDS011;11495;55.610;12.100;2023-07-13T09:29:20;1.45;;;0.93;;
22656;SDS011;11495;55.610;12.100;2023-07-13T09:31:48;1.48;;;0.98;;
22656;SDS011;11495;55.610;12.100;2023-07-13T09:34:14;1.33;;;0.68;;
22656;SDS011;11495;55.610;12.100;2023-07-13T09:36:40;1.08;;;0.90;;
22656;SDS011;11495;55.610;12.100;2023-07-13T09:39:09;0.65;;;0.60;;
22656;SDS011;11495;55.610;12.100;2023-07-13T09:44:13;1.95;;;1.05;;
22656;SDS011;11495;55.610;12.100;2023-07-13T09:46:42;0.70;;;0.70;;
22656;SDS011;11495;55.610;12.100;2023-07-13T09:49:09;0.70;;;0.70;;
22656;SDS011;11495;55.610;12.100;2023-07-13T09:51:35;1.10;;;0.90;;
22656;SDS011;11495;55.610;12.100;2023-07-13T09:54:00;1.75;;;1.10;;
22656;SDS011;11495;55.610;12.100;2023-07-13T09:56:27;3.72;;;1.00;;
22656;SDS011;11495;55.610;12.100;2023-07-13T09:58:54;2.30;;;0.80;;
22656;SDS011;11495;55.610;12.100;2023-07-13T10:01:36;1.20;;;0.70;;
22656;SDS011;11495;55.610;12.100;2023-07-13T10:04:09;0.45;;;0.40;;
22656;SDS011;11495;55.610;12.100;2023-07-13T10:06:36;0.60;;;0.60;;
22656;SDS011;11495;55.610;12.100;2023-07-13T10:09:01;0.73;;;0.73;;
22656;SDS011;11495;55.610;12.100;2023-07-13T10:11:28;1.15;;;0.93;;
22656;SDS011;11495;55.610;12.100;2023-07-13T10:13:59;4.97;;;0.77;;
22656;SDS011;11495;55.610;12.100;2023-07-13T10:16:27;0.70;;;0.60;;
22656;SDS011;11495;55.610;12.100;2023-07-13T10:18:57;0.70;;;0.70;;
22656;SDS011;11495;55.610;12.100;2023-07-13T10:21:26;1.58;;;0.65;;
22656;SDS011;11495;55.610;12.100;2023-07-13T10:24:02;0.57;;;0.50;;
22656;SDS011;11495;55.610;12.100;2023-07-13T10:26:31;1.10;;;1.00;;
22656;SDS011;11495;55.610;12.100;2023-07-13T10:28:59;0.82;;;0.75;;
22656;SDS011;11495;55.610;12.100;2023-07-13T10:31:26;0.50;;;0.50;;
22656;SDS011;11495;55.610;12.100;2023-07-13T10:33:51;1.98;;;0.88;;
22656;SDS011;11495;55.610;12.100;2023-07-13T10:38:48;1.42;;;0.85;;
22656;SDS011;11495;55.610;12.100;2023-07-13T10:41:16;1.00;;;0.90;;
22656;SDS011;11495;55.610;12.100;2023-07-13T10:43:43;0.73;;;0.50;;
22656;SDS011;11495;55.610;12.100;2023-07-13T10:46:11;2.83;;;0.93;;
22656;SDS011;11495;55.610;12.100;2023-07-13T10:48:37;3.33;;;0.80;;
22656;SDS011;11495;55.610;12.100;2023-07-13T10:51:05;1.65;;;1.10;;
22656;SDS011;11495;55.610;12.100;2023-07-13T10:53:32;3.25;;;0.80;;
22656;SDS011;11495;55.610;12.100;2023-07-13T10:58:39;1.77;;;0.90;;
22656;SDS011;11495;55.610;12.100;2023-07-13T11:03:31;1.37;;;0.80;;
22656;SDS011;11495;55.610;12.100;2023-07-13T11:08:35;1.33;;;0.68;;
22656;SDS011;11495;55.610;12.100;2023-07-13T11:11:32;3.37;;;0.90;;
22656;SDS011;11495;55.610;12.100;2023-07-13T11:23:54;1.73;;;1.00;;
22656;SDS011;11495;55.610;12.100;2023-07-13T11:31:54;2.83;;;0.85;;
22656;SDS011;11495;55.610;12.100;2023-07-13T11:34:38;1.67;;;0.90;;
22656;SDS011;11495;55.610;12.100;2023-07-13T11:37:08;0.95;;;0.90;;
22656;SDS011;11495;55.610;12.100;2023-07-13T11:39:36;0.70;;;0.70;;
22656;SDS011;11495;55.610;12.100;2023-07-13T11:42:04;1.20;;;1.08;;
22656;SDS011;11495;55.610;12.100;2023-07-13T11:44:33;3.53;;;1.33;;
22656;SDS011;11495;55.610;12.100;2023-07-13T11:47:00;1.73;;;1.00;;
22656;SDS011;11495;55.610;12.100;2023-07-13T11:49:36;2.22;;;1.15;;
22656;SDS011;11495;55.610;12.100;2023-07-13T11:52:04;3.50;;;1.77;;
22656;SDS011;11495;55.610;12.100;2023-07-13T11:54:31;2.97;;;1.10;;
22656;SDS011;11495;55.610;12.100;2023-07-13T11:56:58;1.83;;;1.00;;
22656;SDS011;11495;55.610;12.100;2023-07-13T11:59:27;2.90;;;1.25;;
22656;SDS011;11495;55.610;12.100;2023-07-13T12:01:54;1.85;;;1.35;;
22656;SDS011;11495;55.610;12.100;2023-07-13T12:04:32;1.42;;;1.02;;
22656;SDS011;11495;55.610;12.100;2023-07-13T12:07:06;1.37;;;0.88;;
22656;SDS011;11495;55.610;12.100;2023-07-13T12:09:34;2.15;;;1.25;;
22656;SDS011;11495;55.610;12.100;2023-07-13T12:12:01;2.05;;;0.98;;
22656;SDS011;11495;55.610;12.100;2023-07-13T12:14:27;0.93;;;0.82;;
22656;SDS011;11495;55.610;12.100;2023-07-13T12:16:53;0.40;;;0.40;;
22656;SDS011;11495;55.610;12.100;2023-07-13T12:19:20;0.57;;;0.57;;
22656;SDS011;11495;55.610;12.100;2023-07-13T12:21:46;1.80;;;0.60;;
22656;SDS011;11495;55.610;12.100;2023-07-13T12:24:16;0.93;;;0.57;;
22656;SDS011;11495;55.610;12.100;2023-07-13T12:26:42;0.65;;;0.60;;
22656;SDS011;11495;55.610;12.100;2023-07-13T12:29:07;1.55;;;0.75;;
22656;SDS011;11495;55.610;12.100;2023-07-13T12:33:59;2.75;;;0.68;;
22656;SDS011;11495;55.610;12.100;2023-07-13T12:36:24;1.60;;;0.60;;
22656;SDS011;11495;55.610;12.100;2023-07-13T12:38:50;1.60;;;0.60;;
22656;SDS011;11495;55.610;12.100;2023-07-13T12:41:16;0.95;;;0.40;;
22656;SDS011;11495;55.610;12.100;2023-07-13T12:43:42;0.50;;;0.50;;
22656;SDS011;11495;55.610;12.100;2023-07-13T12:46:20;1.83;;;0.70;;
22656;SDS011;11495;55.610;12.100;2023-07-13T12:48:50;2.35;;;0.73;;
22656;SDS011;11495;55.610;12.100;2023-07-13T12:51:16;0.93;;;0.90;;
22656;SDS011;11495;55.610;12.100;2023-07-13T12:53:47;0.60;;;0.52;;
22656;SDS011;11495;55.610;12.100;2023-07-13T12:56:18;3.20;;;0.70;;
22656;SDS011;11495;55.610;12.100;2023-07-13T12:58:45;1.70;;;0.98;;
22656;SDS011;11495;55.610;12.100;2023-07-13T13:01:13;1.12;;;0.88;;
22656;SDS011;11495;55.610;12.100;2023-07-13T13:03:40;2.58;;;0.80;;
22656;SDS011;11495;55.610;12.100;2023-07-13T13:08:47;1.40;;;0.88;;
22656;SDS011;11495;55.610;12.100;2023-07-13T13:11:16;1.55;;;0.90;;
22656;SDS011;11495;55.610;12.100;2023-07-13T13:13:45;1.83;;;1.12;;
22656;SDS011;11495;55.610;12.100;2023-07-13T13:16:12;1.92;;;0.60;;
22656;SDS011;11495;55.610;12.100;2023-07-13T13:18:39;0.55;;;0.50;;
22656;SDS011;11495;55.610;12.100;2023-07-13T13:21:04;1.35;;;0.62;;
22656;SDS011;11495;55.610;12.100;2023-07-13T13:23:30;1.30;;;0.82;;
22656;SDS011;11495;55.610;12.100;2023-07-13T13:25:55;0.95;;;0.50;;
22656;SDS011;11495;55.610;12.100;2023-07-13T13:28:20;2.37;;;1.10;;
22656;SDS011;11495;55.610;12.100;2023-07-13T13:30:47;0.40;;;0.40;;
22656;SDS011;11495;55.610;12.100;2023-07-13T13:33:14;3.75;;;0.90;;
22656;SDS011;11495;55.610;12.100;2023-07-13T13:35:40;1.20;;;0.77;;
22656;SDS011;11495;55.610;12.100;2023-07-13T13:38:10;1.67;;;0.70;;
22656;SDS011;11495;55.610;12.100;2023-07-13T13:40:36;1.48;;;0.70;;
22656;SDS011;11495;55.610;12.100;2023-07-13T13:43:01;1.15;;;0.80;;
22656;SDS011;11495;55.610;12.100;2023-07-13T13:45:26;0.60;;;0.60;;
22656;SDS011;11495;55.610;12.100;2023-07-13T13:47:52;0.70;;;0.60;;
22656;SDS011;11495;55.610;12.100;2023-07-13T13:50:19;1.83;;;0.80;;
22656;SDS011;11495;55.610;12.100;2023-07-13T13:52:45;1.37;;;0.60;;
22656;SDS011;11495;55.610;12.100;2023-07-13T13:57:39;1.95;;;0.80;;
22656;SDS011;11495;55.610;12.100;2023-07-13T14:00:04;2.12;;;0.80;;
22656;SDS011;11495;55.610;12.100;2023-07-13T14:02:30;1.92;;;0.82;;
22656;SDS011;11495;55.610;12.100;2023-07-13T14:04:57;0.95;;;0.60;;
22656;SDS011;11495;55.610;12.100;2023-07-13T14:07:24;1.77;;;0.88;;
22656;SDS011;11495;55.610;12.100;2023-07-13T14:09:51;1.33;;;0.47;;
22656;SDS011;11495;55.610;12.100;2023-07-13T14:12:17;1.25;;;0.65;;
22656;SDS011;11495;55.610;12.100;2023-07-13T14:14:43;1.17;;;0.65;;
22656;SDS011;11495;55.610;12.100;2023-07-13T14:17:15;2.10;;;0.68;;
22656;SDS011;11495;55.610;12.100;2023-07-13T14:19:43;1.05;;;0.90;;
22656;SDS011;11495;55.610;12.100;2023-07-13T14:22:08;0.98;;;0.77;;
22656;SDS011;11495;55.610;12.100;2023-07-13T14:24:33;1.98;;;0.70;;
22656;SDS011;11495;55.610;12.100;2023-07-13T14:26:59;5.60;;;0.95;;
22656;SDS011;11495;55.610;12.100;2023-07-13T14:29:24;3.30;;;0.85;;
22656;SDS011;11495;55.610;12.100;2023-07-13T14:31:50;1.37;;;0.40;;
22656;SDS011;11495;55.610;12.100;2023-07-13T14:34:16;1.17;;;0.50;;
22656;SDS011;11495;55.610;12.100;2023-07-13T14:36:42;2.25;;;0.73;;
22656;SDS011;11495;55.610;12.100;2023-07-13T14:39:28;1.85;;;0.55;;
22656;SDS011;11495;55.610;12.100;2023-07-13T14:41:54;0.40;;;0.30;;
22656;SDS011;11495;55.610;12.100;2023-07-13T14:44:20;1.58;;;0.50;;
22656;SDS011;11495;55.610;12.100;2023-07-13T14:46:48;1.77;;;0.57;;
22656;SDS011;11495;55.610;12.100;2023-07-13T14:54:23;0.83;;;0.63;;
22656;SDS011;11495;55.610;12.100;2023-07-13T14:56:49;0.65;;;0.60;;
22656;SDS011;11495;55.610;12.100;2023-07-13T14:59:15;1.98;;;0.70;;
22656;SDS011;11495;55.610;12.100;2023-07-13T15:01:43;0.50;;;0.40;;
22656;SDS011;11495;55.610;12.100;2023-07-13T15:04:09;1.17;;;0.60;;
22656;SDS011;11495;55.610;12.100;2023-07-13T15:06:56;1.35;;;0.57;;
22656;SDS011;11495;55.610;12.100;2023-07-13T15:09:19;0.30;;;0.30;;
22656;SDS011;11495;55.610;12.100;2023-07-13T15:11:45;0.75;;;0.52;;
22656;SDS011;11495;55.610;12.100;2023-07-13T15:14:10;0.50;;;0.50;;
22656;SDS011;11495;55.610;12.100;2023-07-13T15:16:36;0.82;;;0.68;;
22656;SDS011;11495;55.610;12.100;2023-07-13T15:19:01;0.50;;;0.43;;
22656;SDS011;11495;55.610;12.100;2023-07-13T15:21:27;1.02;;;0.50;;
22656;SDS011;11495;55.610;12.100;2023-07-13T15:23:59;0.30;;;0.30;;
22656;SDS011;11495;55.610;12.100;2023-07-13T15:26:25;0.50;;;0.50;;